createdAt,value
2022-09-21T00:06:20.410Z,7.30
2022-09-21T00:08:48.140Z,7.30
2022-09-21T00:11:25.003Z,7.30
2022-09-21T00:13:58.853Z,7.20
2022-09-21T00:18:53.570Z,7.10
2022-09-21T00:26:21.681Z,7.00
2022-09-21T00:28:54.620Z,6.90
2022-09-21T00:36:20.024Z,6.90
2022-09-21T00:38:51.668Z,6.90
2022-09-21T00:41:19.181Z,6.80
2022-09-21T00:43:49.763Z,6.80
2022-09-21T00:46:26.072Z,6.80
2022-09-21T00:53:53.245Z,6.70
2022-09-21T00:58:51.643Z,6.60
2022-09-21T01:03:51.434Z,6.50
2022-09-21T01:06:20.395Z,6.40
2022-09-21T01:08:52.786Z,6.60
2022-09-21T01:11:38.353Z,6.50
2022-09-21T01:19:07.948Z,6.50
2022-09-21T01:22:00.827Z,6.40
2022-09-21T01:24:39.723Z,6.50
2022-09-21T01:27:53.168Z,6.50
2022-09-21T01:30:22.508Z,6.40
2022-09-21T01:33:21.431Z,6.40
2022-09-21T01:35:53.239Z,6.40
2022-09-21T01:38:25.755Z,6.40
2022-09-21T01:40:56.969Z,6.40
2022-09-21T01:43:31.264Z,6.20
2022-09-21T01:46:02.235Z,6.30
2022-09-21T01:48:35.202Z,6.30
2022-09-21T01:51:06.472Z,6.30
2022-09-21T01:53:41.403Z,6.20
2022-09-21T01:56:21.692Z,6.30
2022-09-21T01:58:52.928Z,6.20
2022-09-21T02:01:23.148Z,6.00
2022-09-21T02:03:58.844Z,6.00
2022-09-21T02:06:28.017Z,5.90
2022-09-21T02:13:53.188Z,6.00
2022-09-21T02:16:35.162Z,6.00
2022-09-21T02:19:13.820Z,5.90
2022-09-21T02:22:03.449Z,5.90
2022-09-21T02:27:08.821Z,5.60
2022-09-21T02:30:04.479Z,5.70
2022-09-21T02:32:51.439Z,5.50
2022-09-21T02:35:32.986Z,5.70
2022-09-21T02:38:12.580Z,5.70
2022-09-21T02:41:13.340Z,5.70
2022-09-21T02:43:49.192Z,5.80
2022-09-21T02:46:28.627Z,5.80
2022-09-21T02:49:00.845Z,5.70
2022-09-21T02:51:35.980Z,5.80
2022-09-21T02:54:06.611Z,5.70
2022-09-21T02:59:04.615Z,5.70
2022-09-21T03:01:32.999Z,5.70
2022-09-21T03:21:12.457Z,5.60
2022-09-21T04:10:27.184Z,5.30
2022-09-21T04:12:58.123Z,5.40
2022-09-21T04:20:21.856Z,5.40
2022-09-21T04:30:13.333Z,5.50
2022-09-21T05:19:41.356Z,5.40
2022-09-21T05:32:18.539Z,5.40
2022-09-21T05:35:02.415Z,5.40
2022-09-21T05:37:57.418Z,5.40
2022-09-21T05:48:02.782Z,5.40
2022-09-21T05:51:03.416Z,5.50
2022-09-21T05:53:44.536Z,5.50
2022-09-21T06:01:26.179Z,5.50
2022-09-21T06:18:41.206Z,5.60
2022-09-21T06:21:08.510Z,5.50
2022-09-21T06:30:58.416Z,5.70
2022-09-21T06:36:00.363Z,5.70
2022-09-21T06:38:29.115Z,5.70
2022-09-21T06:45:56.040Z,5.80
2022-09-21T07:52:27.978Z,7.60
2022-09-21T08:42:22.649Z,9.40
2022-09-21T08:44:55.051Z,9.60
2022-09-21T08:47:45.331Z,9.60
2022-09-21T08:50:33.894Z,9.80
2022-09-21T08:53:12.504Z,9.90
2022-09-21T08:58:26.267Z,10.10
2022-09-21T09:01:07.585Z,10.20
2022-09-21T09:04:07.465Z,10.30
2022-09-21T09:07:04.639Z,10.50
2022-09-21T09:09:45.798Z,10.90
2022-09-21T09:12:32.169Z,10.80
2022-09-21T09:15:25.031Z,10.90
2022-09-21T09:18:16.179Z,11.00
2022-09-21T09:20:47.982Z,11.20
2022-09-21T09:23:34.916Z,11.80
2022-09-21T09:26:08.976Z,11.40
2022-09-21T09:28:42.664Z,11.50
2022-09-21T09:31:31.886Z,11.70
2022-09-21T09:34:13.292Z,12.40
2022-09-21T09:36:58.322Z,11.90
2022-09-21T09:39:28.440Z,12.00
2022-09-21T09:42:23.668Z,12.20
2022-09-21T09:45:09.758Z,12.20
2022-09-21T09:47:54.740Z,12.50
2022-09-21T09:50:29.624Z,12.30
2022-09-21T09:53:09.672Z,12.60
2022-09-21T09:55:40.738Z,12.60
2022-09-21T09:58:31.067Z,12.80
2022-09-21T10:03:27.587Z,13.00
2022-09-21T10:08:53.207Z,13.20
2022-09-21T10:13:49.181Z,13.40
2022-09-21T10:16:23.488Z,13.40
2022-09-21T10:19:01.577Z,13.50
2022-09-21T10:21:35.469Z,13.60
2022-09-21T10:24:06.812Z,13.50
2022-09-21T10:26:45.874Z,13.50
2022-09-21T10:29:30.666Z,13.30
2022-09-21T10:34:28.264Z,13.70
2022-09-21T10:36:57.342Z,13.40
2022-09-21T10:39:25.884Z,13.60
2022-09-21T10:42:14.095Z,13.50
2022-09-21T10:44:42.089Z,13.50
2022-09-21T10:47:35.689Z,13.40
2022-09-21T10:50:07.937Z,13.30
2022-09-21T10:52:39.439Z,13.40
2022-09-21T10:55:08.480Z,13.60
2022-09-21T11:00:21.081Z,13.20
2022-09-21T11:05:38.071Z,13.20
2022-09-21T11:08:36.873Z,13.00
2022-09-21T11:11:25.639Z,13.00
2022-09-21T11:14:07.422Z,13.40
2022-09-21T11:16:43.149Z,13.10
2022-09-21T11:19:38.644Z,13.10
2022-09-21T11:22:23.667Z,13.10
2022-09-21T11:25:02.429Z,13.30
2022-09-21T11:27:39.616Z,13.60
2022-09-21T11:30:11.989Z,13.70
2022-09-21T11:35:47.730Z,14.20
2022-09-21T11:38:28.159Z,14.50
2022-09-21T11:41:22.074Z,14.40
2022-09-21T11:44:18.953Z,14.30
2022-09-21T11:47:02.880Z,14.60
2022-09-21T11:50:26.311Z,14.90
2022-09-21T11:53:01.952Z,14.60
2022-09-21T11:55:50.318Z,14.90
2022-09-21T11:58:41.528Z,14.90
2022-09-21T12:01:31.395Z,14.90
2022-09-21T12:04:42.715Z,14.90
2022-09-21T12:07:20.700Z,14.80
2022-09-21T12:10:14.820Z,14.80
2022-09-21T12:12:56.030Z,14.80
2022-09-21T12:20:28.940Z,14.60
2022-09-21T12:23:04.888Z,14.40
2022-09-21T12:25:37.382Z,14.40
2022-09-21T12:28:28.728Z,14.50
2022-09-21T12:31:01.635Z,14.10
2022-09-21T12:33:42.527Z,14.40
2022-09-21T12:38:54.518Z,14.10
2022-09-21T12:42:03.593Z,14.50
2022-09-21T12:44:53.038Z,14.40
2022-09-21T12:47:30.018Z,14.90
2022-09-21T12:50:03.790Z,14.70
2022-09-21T12:52:33.020Z,14.70
2022-09-21T12:55:45.588Z,14.60
2022-09-21T12:58:36.382Z,14.90
2022-09-21T13:01:17.471Z,15.10
2022-09-21T13:04:02.060Z,15.30
2022-09-21T13:07:12.184Z,15.40
2022-09-21T13:09:42.520Z,15.60
2022-09-21T13:12:21.861Z,15.70
2022-09-21T13:14:53.805Z,15.50
2022-09-21T13:17:29.434Z,15.40
2022-09-21T13:20:16.949Z,15.00
2022-09-21T13:22:44.712Z,15.20
2022-09-21T13:25:26.327Z,15.00
2022-09-21T13:28:01.965Z,15.20
2022-09-21T13:30:35.793Z,14.80
2022-09-21T13:33:25.266Z,14.60
2022-09-21T13:38:31.065Z,14.70
2022-09-21T13:41:17.798Z,14.90
2022-09-21T13:43:50.563Z,14.80
2022-09-21T13:46:35.660Z,15.30
2022-09-21T13:49:06.064Z,14.80
2022-09-21T13:51:33.420Z,14.90
2022-09-21T13:54:02.558Z,14.90
2022-09-21T13:58:58.410Z,15.10
2022-09-21T14:01:46.732Z,15.20
2022-09-21T14:04:31.825Z,15.20
2022-09-21T14:07:05.228Z,15.20
2022-09-21T14:09:41.255Z,15.20
2022-09-21T14:12:18.164Z,15.30
2022-09-21T14:15:11.395Z,15.30
2022-09-21T14:17:40.624Z,15.30
2022-09-21T14:20:33.587Z,15.40
2022-09-21T14:23:14.539Z,15.50
2022-09-21T14:25:51.770Z,15.30
2022-09-21T14:28:39.056Z,15.30
2022-09-21T14:31:14.454Z,15.40
2022-09-21T14:33:44.275Z,15.40
2022-09-21T14:36:16.741Z,15.40
2022-09-21T14:38:54.357Z,15.40
2022-09-21T14:41:24.344Z,15.40
2022-09-21T14:43:54.323Z,15.50
2022-09-21T14:49:16.015Z,15.70
2022-09-21T14:54:17.420Z,15.50
2022-09-21T14:57:14.146Z,15.10
2022-09-21T14:59:50.541Z,15.50
2022-09-21T15:02:27.481Z,15.50
2022-09-21T15:05:27.983Z,15.30
2022-09-21T15:08:57.636Z,15.60
2022-09-21T15:11:30.531Z,15.70
2022-09-21T15:16:38.107Z,15.30
2022-09-21T15:19:27.256Z,15.20
2022-09-21T15:22:16.226Z,15.20
2022-09-21T15:24:52.980Z,15.30
2022-09-21T15:27:22.811Z,15.50
2022-09-21T15:29:54.794Z,15.40
2022-09-21T15:32:40.503Z,15.20
2022-09-21T15:35:19.708Z,15.10
2022-09-21T15:37:47.372Z,15.40
2022-09-21T15:40:21.788Z,15.10
2022-09-21T15:43:20.623Z,15.50
2022-09-21T15:45:55.950Z,15.30
2022-09-21T15:48:27.335Z,15.10
2022-09-21T15:51:14.287Z,15.00
2022-09-21T15:53:53.438Z,15.00
2022-09-21T15:56:23.515Z,15.00
2022-09-21T16:01:23.629Z,14.90
2022-09-21T16:04:05.281Z,14.70
2022-09-21T16:06:41.660Z,15.00
2022-09-21T16:09:42.932Z,14.60
2022-09-21T16:12:40.050Z,14.90
2022-09-21T16:15:14.723Z,14.40
2022-09-21T16:17:56.959Z,14.60
2022-09-21T16:23:02.963Z,14.50
2022-09-21T16:25:34.620Z,14.40
2022-09-21T16:28:18.646Z,14.40
2022-09-21T16:30:51.900Z,14.10
2022-09-21T16:33:41.129Z,14.50
2022-09-21T16:36:17.110Z,14.20
2022-09-21T16:38:45.059Z,14.20
2022-09-21T16:48:38.110Z,14.10
2022-09-21T16:51:11.748Z,13.90
2022-09-21T16:56:07.056Z,13.70
2022-09-21T16:58:34.103Z,13.40
2022-09-21T17:20:45.326Z,12.90
2022-09-21T17:28:17.623Z,12.40
2022-09-21T17:33:13.367Z,12.70
2022-09-21T17:35:41.554Z,12.60
2022-09-21T17:40:42.662Z,12.60
2022-09-21T17:43:38.228Z,12.20
2022-09-21T17:46:26.364Z,12.30
2022-09-21T17:48:53.531Z,12.00
2022-09-21T17:51:39.166Z,12.40
2022-09-21T17:54:06.545Z,12.40
2022-09-21T17:56:47.102Z,12.00
2022-09-21T17:59:43.610Z,12.00
2022-09-21T18:02:23.710Z,11.40
2022-09-21T18:04:56.084Z,11.70
2022-09-21T18:07:25.086Z,11.60
2022-09-21T18:12:54.198Z,11.50
2022-09-21T18:15:57.959Z,11.70
2022-09-21T18:18:37.788Z,11.20
2022-09-21T18:21:11.259Z,10.90
2022-09-21T18:24:03.256Z,10.90
2022-09-21T18:26:30.580Z,10.70
2022-09-21T18:31:30.994Z,10.50
2022-09-21T18:34:46.683Z,10.80
2022-09-21T18:39:55.404Z,10.60
2022-09-21T18:42:53.404Z,10.70
2022-09-21T18:45:32.281Z,10.70
2022-09-21T18:48:07.874Z,10.30
2022-09-21T18:50:43.334Z,10.40
2022-09-21T18:53:37.767Z,10.50
2022-09-21T18:56:06.057Z,10.20
2022-09-21T19:01:00.433Z,10.60
2022-09-21T19:03:28.142Z,10.40
2022-09-21T19:06:08.055Z,10.20
2022-09-21T19:09:01.666Z,10.20
2022-09-21T19:11:32.338Z,10.30
2022-09-21T19:14:33.391Z,10.10
2022-09-21T19:17:03.205Z,9.70
2022-09-21T19:20:12.283Z,9.90
2022-09-21T19:22:48.473Z,9.90
2022-09-21T19:25:37.009Z,10.00
2022-09-21T19:28:28.855Z,10.10
2022-09-21T19:31:03.295Z,10.00
2022-09-21T19:33:49.360Z,10.10
2022-09-21T19:36:17.483Z,9.80
2022-09-21T19:41:17.328Z,9.50
2022-09-21T19:43:55.935Z,9.80
2022-09-21T19:51:19.728Z,9.60
2022-09-21T19:54:13.779Z,9.50
2022-09-21T19:57:07.989Z,9.50
2022-09-21T20:02:33.126Z,9.50
2022-09-21T20:05:40.637Z,9.30
2022-09-21T20:11:05.712Z,9.30
2022-09-21T20:13:56.478Z,9.20
2022-09-21T20:16:40.227Z,9.00
2022-09-21T20:19:13.247Z,9.00
2022-09-21T20:21:42.946Z,9.00
2022-09-21T20:24:30.772Z,9.00
2022-09-21T20:29:24.863Z,8.70
2022-09-21T20:31:53.016Z,9.10
2022-09-21T20:34:20.970Z,8.60
2022-09-21T20:36:47.767Z,9.10
2022-09-21T20:39:14.584Z,9.00
2022-09-21T20:41:41.372Z,8.70
2022-09-21T20:44:12.222Z,8.80
2022-09-21T20:46:39.128Z,8.70
2022-09-21T20:51:36.156Z,8.60
2022-09-21T20:54:03.814Z,8.50
2022-09-21T20:58:57.971Z,8.10
2022-09-21T21:03:52.194Z,8.40
2022-09-21T21:13:42.544Z,8.30
2022-09-21T21:16:12.028Z,8.20
2022-09-21T21:18:43.400Z,8.30
2022-09-21T21:23:57.773Z,8.60
2022-09-21T21:41:29.203Z,7.90
2022-09-21T21:46:23.179Z,7.70
2022-09-21T21:53:45.291Z,7.40
2022-09-21T22:01:07.772Z,6.90
2022-09-21T22:06:04.464Z,7.20
2022-09-21T22:08:32.713Z,7.20
2022-09-21T22:11:00.380Z,7.20
2022-09-21T22:13:34.293Z,7.20
2022-09-21T22:16:13.013Z,7.20
2022-09-21T22:21:11.828Z,7.30
2022-09-21T22:23:39.420Z,7.60
2022-09-21T22:26:14.030Z,7.30
2022-09-21T22:28:42.527Z,7.30
2022-09-21T22:31:15.733Z,7.40
2022-09-21T22:36:18.379Z,7.40
2022-09-21T22:38:46.246Z,7.40
2022-09-21T22:41:21.386Z,7.40
2022-09-21T22:43:50.750Z,7.40
2022-09-21T22:46:18.241Z,7.40
2022-09-21T22:48:45.611Z,7.40
2022-09-21T22:51:13.767Z,7.40
2022-09-21T22:56:10.763Z,7.40
2022-09-21T22:58:39.841Z,7.40
2022-09-21T23:01:12.382Z,7.40
2022-09-21T23:03:40.660Z,7.30
2022-09-21T23:06:11.576Z,7.30
2022-09-21T23:11:21.912Z,7.20
2022-09-21T23:16:17.435Z,7.20
2022-09-21T23:21:14.984Z,7.00
2022-09-21T23:23:42.123Z,6.90
2022-09-21T23:26:14.156Z,6.80
2022-09-21T23:28:42.940Z,6.70
2022-09-21T23:31:11.968Z,6.60
2022-09-21T23:33:41.434Z,6.60
2022-09-21T23:36:10.369Z,6.60
2022-09-21T23:41:17.745Z,6.70
2022-09-21T23:43:45.536Z,6.70
2022-09-21T23:46:19.596Z,6.70
2022-09-21T23:48:47.282Z,6.50
2022-09-21T23:56:10.792Z,6.60
